»·PEaware :: N208GG KSBA-KSBP

N208GG :: KSBA-KSBP

FLIGHT INFORMATION

Flight Status: Arrived
Operator: Privately registered:
United States
More flights under this callsign
Pilot: Hunter M. (19355)
Aircraft: CESSNA 172 SKYHAWK
(C172)
More flights by this aircraft type
Origin: KSBA Santa Barbara Mun
United States
Destination: KSBP San Luis Co Regl
United States
More flights between these airports :: More routes between these airports
Route: +GVO V27 MQO
File this flight plan on PilotEdge
Remarks: None
Altitude:
(Current/Filed)
3,500ft
Speed:
(Current/Filed)
118kts
Departed: 06-Sep-19 11:23 AM
Arrived: 06-Sep-19 12:14 PM
Distance/Time
Traveled:
63nm/0:51
Distance/Time
To Go:
Arrived

Flight Plot

Page will automatically refresh every two minutes.


Map Options




Map Legend


Flown Route
Filed Route
Departure Airport
Arrival Airport
Navaid (VOR, NDB)
Fix

Horizontal Profiles

Position Reports

Time Latitude Longitude Heading Altitude Ground
Speed
06-Sep-19 10:56 34.431455 -119.831911 357 13ft 0kts
06-Sep-19 10:57 34.431455 -119.831911 357 13ft 0kts
06-Sep-19 10:58 34.431455 -119.831911 357 13ft 0kts
06-Sep-19 10:58 34.431455 -119.831911 357 13ft 0kts
06-Sep-19 11:00 34.431455 -119.831911 357 13ft 0kts
06-Sep-19 11:01 34.431455 -119.831911 357 13ft 0kts
06-Sep-19 11:01 34.431455 -119.831911 357 13ft 0kts
06-Sep-19 11:03 34.431455 -119.831911 357 13ft 0kts
06-Sep-19 11:04 34.431455 -119.831911 357 13ft 0kts
06-Sep-19 11:04 34.431455 -119.831911 357 13ft 0kts
06-Sep-19 11:05 34.431455 -119.831911 357 13ft 0kts
06-Sep-19 11:07 34.431455 -119.831911 357 13ft 0kts
06-Sep-19 11:07 34.431455 -119.831911 357 13ft 0kts
06-Sep-19 11:08 34.431455 -119.831911 357 13ft 0kts
06-Sep-19 11:09 34.431455 -119.831911 357 13ft 0kts
06-Sep-19 11:10 34.431455 -119.831911 357 13ft 0kts
06-Sep-19 11:11 34.431455 -119.831911 357 13ft 0kts
06-Sep-19 11:12 34.431455 -119.831911 357 13ft 0kts
06-Sep-19 11:13 34.431455 -119.831911 357 13ft 0kts
06-Sep-19 11:14 34.431455 -119.831911 357 13ft 0kts
06-Sep-19 11:15 34.431455 -119.831911 357 13ft 0kts
06-Sep-19 11:16 34.431455 -119.831911 357 13ft 0kts
06-Sep-19 11:17 34.430680 -119.832058 257 13ft 0kts
06-Sep-19 11:18 34.429717 -119.832032 185 13ft 8kts
06-Sep-19 11:19 34.429065 -119.834905 262 13ft 4kts
06-Sep-19 11:20 34.428575 -119.835192 178 13ft 0kts
06-Sep-19 11:21 34.428573 -119.835192 178 13ft 0kts
06-Sep-19 11:22 34.427784 -119.839806 266 13ft 68kts
06-Sep-19 11:23 34.426369 -119.871266 263 665ft 100kts
06-Sep-19 11:24 34.424652 -119.905649 263 1372ft 103kts
06-Sep-19 11:25 34.421710 -119.940400 263 2064ft 103kts
06-Sep-19 11:26 34.417345 -119.973943 263 2778ft 94kts
06-Sep-19 11:27 34.412471 -120.004010 262 3443ft 88kts
06-Sep-19 11:28 34.407598 -120.032580 262 4117ft 85kts
06-Sep-19 11:29 34.411585 -120.056957 352 4797ft 75kts
06-Sep-19 11:30 34.433739 -120.058392 346 5082ft 102kts
06-Sep-19 11:31 34.460526 -120.070309 339 4996ft 100kts
06-Sep-19 11:32 34.484081 -120.080352 341 5168ft 76kts
06-Sep-19 11:33 34.503953 -120.082393 343 5824ft 67kts
06-Sep-19 11:34 34.525381 -120.089255 342 6040ft 96kts
06-Sep-19 11:35 34.549107 -120.107464 322 6004ft 104kts
06-Sep-19 11:36 34.571286 -120.127889 322 5988ft 93kts
06-Sep-19 11:37 34.591259 -120.146218 322 6000ft 88kts
06-Sep-19 11:38 34.610893 -120.164282 322 6002ft 88kts
06-Sep-19 11:39 34.630495 -120.182288 322 6002ft 88kts
06-Sep-19 11:40 34.650030 -120.200228 323 6004ft 88kts
06-Sep-19 11:41 34.669617 -120.218140 325 6004ft 88kts
06-Sep-19 11:42 34.689087 -120.236084 323 6006ft 87kts
06-Sep-19 11:43 34.708461 -120.254000 323 6009ft 87kts
06-Sep-19 11:44 34.727884 -120.271920 324 6008ft 87kts
06-Sep-19 11:45 34.747313 -120.289881 323 6008ft 87kts
06-Sep-19 11:46 34.766748 -120.307877 322 6010ft 88kts
06-Sep-19 11:47 34.787136 -120.326758 322 6012ft 94kts
06-Sep-19 11:48 34.808034 -120.346097 322 6013ft 94kts
06-Sep-19 11:49 34.828943 -120.365446 322 6016ft 94kts
06-Sep-19 11:50 34.849914 -120.384865 322 6017ft 94kts
06-Sep-19 11:51 34.870903 -120.404314 322 6018ft 95kts
06-Sep-19 11:52 34.891908 -120.423788 322 6018ft 94kts
06-Sep-19 11:53 34.912975 -120.443333 322 6017ft 94kts
06-Sep-19 11:54 34.925678 -120.471551 291 5694ft 103kts
06-Sep-19 11:55 34.934313 -120.505395 290 5019ft 105kts
06-Sep-19 11:56 34.943090 -120.539599 290 4340ft 106kts
06-Sep-19 11:57 34.952557 -120.572250 319 4007ft 97kts
06-Sep-19 11:58 34.977271 -120.569896 28 4019ft 104kts
06-Sep-19 11:59 35.000282 -120.549999 31 4006ft 99kts
06-Sep-19 12:00 35.022690 -120.529906 32 3861ft 103kts
06-Sep-19 12:01 35.046254 -120.508699 32 3322ft 103kts
06-Sep-19 12:02 35.067033 -120.489691 31 3300ft 87kts
06-Sep-19 12:03 35.086536 -120.471997 31 3311ft 87kts
06-Sep-19 12:04 35.105881 -120.453802 32 3300ft 88kts
06-Sep-19 12:05 35.125691 -120.456497 327 3255ft 87kts
06-Sep-19 12:06 35.143364 -120.480606 308 2879ft 93kts
06-Sep-19 12:07 35.158164 -120.504701 307 2890ft 87kts
06-Sep-19 12:08 35.173405 -120.529638 304 2647ft 100kts
06-Sep-19 12:09 35.189667 -120.557319 302 2135ft 93kts
06-Sep-19 12:10 35.203704 -120.581632 302 1336ft 78kts
06-Sep-19 12:11 35.215659 -120.602713 301 900ft 74kts
06-Sep-19 12:12 35.226460 -120.621875 302 540ft 65kts
06-Sep-19 12:13 35.236142 -120.638964 307 215ft 33kts
06-Sep-19 12:14 35.238241 -120.641401 83 215ft 0kts
06-Sep-19 12:15 35.239087 -120.641457 293 215ft 0kts

Navigation Log

Ident Type
Flight plan parsing failed, navigation log unavailable